createdAt,value
2022-10-18T00:00:18.845Z,91.5
2022-10-18T00:01:24.112Z,91
2022-10-18T00:02:30.387Z,91
2022-10-18T00:03:36.720Z,91
2022-10-18T00:04:42.930Z,91.5
2022-10-18T00:05:49.242Z,91.5
2022-10-18T00:06:55.474Z,91
2022-10-18T00:08:01.781Z,91.5
2022-10-18T00:09:07.051Z,92
2022-10-18T00:10:12.342Z,92
2022-10-18T00:11:17.636Z,92
2022-10-18T00:12:22.929Z,92
2022-10-18T00:13:29.194Z,92
2022-10-18T00:14:35.472Z,92.5
2022-10-18T00:15:41.748Z,92.5
2022-10-18T00:16:48.011Z,92
2022-10-18T00:17:54.290Z,92
2022-10-18T00:19:00.555Z,92.5
2022-10-18T00:20:06.829Z,92.5
2022-10-18T00:21:13.097Z,92
2022-10-18T00:22:19.372Z,92.5
2022-10-18T00:23:25.643Z,93
2022-10-18T00:24:31.914Z,93
2022-10-18T00:25:38.203Z,93
2022-10-18T00:26:43.476Z,93
2022-10-18T00:27:49.748Z,93
2022-10-18T00:28:56.017Z,92.5
2022-10-18T00:30:02.301Z,92.5
2022-10-18T00:31:08.563Z,92.5
2022-10-18T00:32:14.835Z,93
2022-10-18T00:33:21.109Z,93
2022-10-18T00:34:26.408Z,93
2022-10-18T00:35:31.702Z,93
2022-10-18T00:36:36.998Z,93
2022-10-18T00:37:42.282Z,93.5
2022-10-18T00:38:48.564Z,93.5
2022-10-18T00:39:54.890Z,93.5
2022-10-18T00:41:01.112Z,93.5
2022-10-18T00:42:07.367Z,93
2022-10-18T00:43:13.644Z,93
2022-10-18T00:44:19.941Z,93
2022-10-18T00:45:26.192Z,93
2022-10-18T00:46:32.470Z,93
2022-10-18T00:47:38.736Z,93
2022-10-18T00:48:45.068Z,93.5
2022-10-18T00:49:51.285Z,93
2022-10-18T00:50:57.547Z,93
2022-10-18T00:52:02.840Z,93
2022-10-18T00:53:09.113Z,93
2022-10-18T00:54:15.384Z,93
2022-10-18T00:55:21.655Z,93
2022-10-18T00:56:27.925Z,93
2022-10-18T00:57:34.198Z,93
2022-10-18T00:58:40.477Z,93
2022-10-18T00:59:45.770Z,93
2022-10-18T01:00:51.057Z,93
2022-10-18T01:01:57.333Z,93
2022-10-18T01:03:03.625Z,93
2022-10-18T01:04:08.901Z,93
2022-10-18T01:05:14.186Z,92.5
2022-10-18T01:06:20.461Z,92.5
2022-10-18T01:07:26.729Z,92.5
2022-10-18T01:08:33.001Z,92.5
2022-10-18T01:09:39.284Z,92.5
2022-10-18T01:10:45.569Z,92
2022-10-18T01:11:51.819Z,92
2022-10-18T01:12:58.093Z,92
2022-10-18T01:14:04.367Z,92.5
2022-10-18T01:15:10.635Z,92.5
2022-10-18T01:16:16.931Z,92.5
2022-10-18T01:17:23.199Z,93
2022-10-18T01:18:29.473Z,93
2022-10-18T01:19:34.741Z,93
2022-10-18T01:20:41.010Z,93.5
2022-10-18T01:21:47.290Z,93.5
2022-10-18T01:22:53.561Z,93.5
2022-10-18T01:23:59.831Z,93.5
2022-10-18T01:25:06.104Z,94
2022-10-18T01:26:12.388Z,94
2022-10-18T01:27:17.674Z,94.5
2022-10-18T01:28:22.961Z,95
2022-10-18T01:29:28.262Z,95
2022-10-18T01:30:33.550Z,95
2022-10-18T01:31:39.823Z,95.5
2022-10-18T01:32:46.097Z,95.5
2022-10-18T01:33:52.369Z,95.5
2022-10-18T01:34:58.647Z,95.5
2022-10-18T01:36:04.910Z,95
2022-10-18T01:37:11.180Z,95
2022-10-18T01:38:17.454Z,95
2022-10-18T01:39:23.729Z,95
2022-10-18T01:40:29.996Z,95
2022-10-18T01:41:36.272Z,95
2022-10-18T01:42:42.545Z,95
2022-10-18T01:43:48.824Z,95
2022-10-18T01:44:54.111Z,95
2022-10-18T01:46:00.387Z,94.5
2022-10-18T01:47:06.650Z,94.5
2022-10-18T01:48:12.924Z,94
2022-10-18T01:49:19.195Z,94
2022-10-18T01:50:25.481Z,94
2022-10-18T01:51:31.743Z,94
2022-10-18T01:52:37.060Z,94
2022-10-18T01:53:42.337Z,94
2022-10-18T01:54:48.595Z,94
2022-10-18T01:55:53.906Z,93.5
2022-10-18T01:56:59.183Z,93.5
2022-10-18T01:58:05.458Z,93.5
2022-10-18T01:59:11.736Z,93.5
2022-10-18T02:00:18.008Z,93.5
2022-10-18T02:01:24.271Z,93
2022-10-18T02:02:30.544Z,93.5
2022-10-18T02:03:36.820Z,93
2022-10-18T02:04:43.091Z,93.5
2022-10-18T02:05:49.361Z,93
2022-10-18T02:06:55.640Z,93.5
2022-10-18T02:08:01.908Z,93.5
2022-10-18T02:09:08.182Z,93.5
2022-10-18T02:10:14.474Z,94
2022-10-18T02:11:19.742Z,94
2022-10-18T02:12:26.019Z,94
2022-10-18T02:13:32.287Z,94.5
2022-10-18T02:14:38.560Z,94.5
2022-10-18T02:15:44.844Z,94.5
2022-10-18T02:16:51.099Z,94.5
2022-10-18T02:17:57.376Z,94.5
2022-10-18T02:19:02.678Z,94.5
2022-10-18T02:20:07.959Z,94.5
2022-10-18T02:21:14.238Z,94
2022-10-18T02:22:20.506Z,94
2022-10-18T02:23:25.807Z,94
2022-10-18T02:24:31.098Z,94
2022-10-18T02:25:37.364Z,94
2022-10-18T02:26:43.639Z,94
2022-10-18T02:27:49.903Z,94
2022-10-18T02:28:56.184Z,93.5
2022-10-18T02:30:02.460Z,93.5
2022-10-18T02:31:08.729Z,94
2022-10-18T02:32:14.999Z,93.5
2022-10-18T02:33:21.271Z,93.5
2022-10-18T02:34:27.557Z,93.5
2022-10-18T02:35:33.818Z,93.5
2022-10-18T02:36:40.093Z,93
2022-10-18T02:37:46.360Z,93.5
2022-10-18T02:38:51.644Z,93.5
2022-10-18T02:39:57.925Z,93
2022-10-18T02:41:04.187Z,93
2022-10-18T02:42:10.461Z,93
2022-10-18T02:43:16.730Z,93
2022-10-18T02:44:23.008Z,93.5
2022-10-18T02:45:29.292Z,93.5
2022-10-18T02:46:34.584Z,93.5
2022-10-18T02:47:39.873Z,93.5
2022-10-18T02:48:45.161Z,93.5
2022-10-18T02:49:50.455Z,93.5
2022-10-18T02:50:56.725Z,93.5
2022-10-18T02:52:02.995Z,93.5
2022-10-18T02:53:09.268Z,93.5
2022-10-18T02:54:15.546Z,94
2022-10-18T02:55:21.822Z,94
2022-10-18T02:56:28.084Z,94
2022-10-18T02:57:34.363Z,94
2022-10-18T02:58:40.628Z,93.5
2022-10-18T02:59:46.927Z,93.5
2022-10-18T03:00:53.175Z,93.5
2022-10-18T03:01:59.439Z,93.5
2022-10-18T03:03:05.719Z,93.5
2022-10-18T03:04:11.993Z,93.5
2022-10-18T03:05:17.284Z,94
2022-10-18T03:06:23.551Z,94
2022-10-18T03:07:29.817Z,94
2022-10-18T03:08:36.099Z,94.5
2022-10-18T03:09:42.365Z,94
2022-10-18T03:10:48.636Z,94
2022-10-18T03:11:53.937Z,94
2022-10-18T03:12:59.225Z,94
2022-10-18T03:14:05.506Z,94
2022-10-18T03:15:10.797Z,94
2022-10-18T03:16:16.087Z,94.5
2022-10-18T03:17:22.360Z,94.5
2022-10-18T03:18:28.653Z,94.5
2022-10-18T03:19:34.896Z,95
2022-10-18T03:20:40.195Z,95
2022-10-18T03:21:46.465Z,95
2022-10-18T03:22:52.736Z,95
2022-10-18T03:23:59.011Z,95
2022-10-18T03:25:05.284Z,95
2022-10-18T03:26:11.556Z,95.5
2022-10-18T03:27:17.829Z,95
2022-10-18T03:28:24.120Z,95.5
2022-10-18T03:29:30.384Z,95.5
2022-10-18T03:30:36.643Z,95
2022-10-18T03:31:42.918Z,95.5
2022-10-18T03:32:49.196Z,95
2022-10-18T03:33:55.484Z,95
2022-10-18T03:35:00.754Z,94.5
2022-10-18T03:36:07.027Z,94.5
2022-10-18T03:37:13.294Z,94.5
2022-10-18T03:38:19.564Z,94.5
2022-10-18T03:39:25.842Z,95
2022-10-18T03:40:32.116Z,95
2022-10-18T03:41:38.378Z,95.5
2022-10-18T03:42:44.655Z,95.5
2022-10-18T03:43:50.925Z,95.5
2022-10-18T03:44:57.197Z,95.5
2022-10-18T03:46:03.466Z,95.5
2022-10-18T03:47:09.753Z,95.5
2022-10-18T03:48:16.019Z,95.5
2022-10-18T03:49:21.304Z,95
2022-10-18T03:50:26.605Z,95.5
2022-10-18T03:51:31.892Z,95
2022-10-18T03:52:38.159Z,95
2022-10-18T03:53:43.461Z,95
2022-10-18T03:54:48.747Z,95
2022-10-18T03:55:55.023Z,95
2022-10-18T03:57:01.293Z,95
2022-10-18T03:58:07.575Z,95
2022-10-18T03:59:13.866Z,95
2022-10-18T04:00:20.108Z,95
2022-10-18T04:01:26.412Z,95
2022-10-18T04:02:32.663Z,95
2022-10-18T04:03:38.933Z,94.5
2022-10-18T04:04:45.231Z,94.5
2022-10-18T04:05:51.497Z,94.5
2022-10-18T04:06:57.742Z,95
2022-10-18T04:08:04.021Z,95
2022-10-18T04:09:09.303Z,95
2022-10-18T04:10:15.600Z,95
2022-10-18T04:11:21.849Z,95.5
2022-10-18T04:12:28.123Z,95.5
2022-10-18T04:13:34.394Z,95
2022-10-18T04:14:40.659Z,95.5
2022-10-18T04:15:46.941Z,95.5
2022-10-18T04:16:52.239Z,95.5
2022-10-18T04:17:57.522Z,95.5
2022-10-18T04:19:03.800Z,95.5
2022-10-18T04:20:10.065Z,96
2022-10-18T04:21:16.344Z,96
2022-10-18T04:22:21.644Z,95.5
2022-10-18T04:23:26.940Z,95.5
2022-10-18T04:24:33.199Z,95.5
2022-10-18T04:25:39.473Z,95.5
2022-10-18T04:26:45.746Z,95.5
2022-10-18T04:27:52.013Z,95
2022-10-18T04:28:58.291Z,95
2022-10-18T04:30:04.561Z,95
2022-10-18T04:31:10.834Z,95
2022-10-18T04:32:17.133Z,95
2022-10-18T04:33:23.374Z,95
2022-10-18T04:34:29.724Z,95
2022-10-18T04:35:35.923Z,95
2022-10-18T04:36:42.200Z,95
2022-10-18T04:37:47.486Z,95
2022-10-18T04:38:53.752Z,95
2022-10-18T04:40:00.056Z,95
2022-10-18T04:41:06.298Z,95
2022-10-18T04:42:12.573Z,95
2022-10-18T04:43:18.840Z,95
2022-10-18T04:44:25.119Z,95
2022-10-18T04:45:30.409Z,95
2022-10-18T04:46:35.701Z,95
2022-10-18T04:47:41.001Z,94.5
2022-10-18T04:48:46.322Z,94.5
2022-10-18T04:49:52.564Z,95
2022-10-18T04:50:58.848Z,95
2022-10-18T04:52:05.113Z,95
2022-10-18T04:53:11.410Z,95
2022-10-18T04:54:17.680Z,95
2022-10-18T04:55:23.917Z,95
2022-10-18T04:56:30.198Z,95
2022-10-18T04:57:36.495Z,95
2022-10-18T04:58:42.738Z,94.5
2022-10-18T04:59:49.010Z,94.5
2022-10-18T05:00:55.279Z,94.5
2022-10-18T05:02:01.558Z,94.5
2022-10-18T05:03:06.839Z,94.5
2022-10-18T05:04:13.115Z,94.5
2022-10-18T05:05:19.401Z,94.5
2022-10-18T05:06:25.663Z,95
2022-10-18T05:07:31.930Z,94.5
2022-10-18T05:08:38.205Z,95
2022-10-18T05:09:44.479Z,95
2022-10-18T05:10:49.773Z,95
2022-10-18T05:11:55.066Z,95
2022-10-18T05:13:00.373Z,95
2022-10-18T05:14:05.651Z,95
2022-10-18T05:15:11.925Z,95
2022-10-18T05:16:18.199Z,95
2022-10-18T05:17:24.463Z,95
2022-10-18T05:18:30.743Z,95
2022-10-18T05:19:37.008Z,95
2022-10-18T05:20:43.278Z,95
2022-10-18T05:21:49.574Z,95
2022-10-18T05:22:55.828Z,95
2022-10-18T05:24:02.107Z,95
2022-10-18T05:25:08.371Z,95
2022-10-18T05:26:14.648Z,94.5
2022-10-18T05:27:20.950Z,94.5
2022-10-18T05:28:26.207Z,94.5
2022-10-18T05:29:32.483Z,94.5
2022-10-18T05:30:38.748Z,94.5
2022-10-18T05:31:45.018Z,94.5
2022-10-18T05:32:51.304Z,94.5
2022-10-18T05:33:57.570Z,94.5
2022-10-18T05:35:03.840Z,94.5
2022-10-18T05:36:09.139Z,94.5
2022-10-18T05:37:14.448Z,95
2022-10-18T05:38:20.779Z,95
2022-10-18T05:39:25.999Z,95
2022-10-18T05:40:31.284Z,95
2022-10-18T05:41:37.567Z,95
2022-10-18T05:42:43.833Z,95
2022-10-18T05:43:50.103Z,95
2022-10-18T05:44:56.373Z,95
2022-10-18T05:46:02.647Z,95
2022-10-18T05:47:08.916Z,95
2022-10-18T05:48:15.192Z,94.5
2022-10-18T05:49:21.465Z,94
2022-10-18T05:50:27.732Z,94
2022-10-18T05:51:34.009Z,94.5
2022-10-18T05:52:40.278Z,94
2022-10-18T05:53:46.564Z,94.5
2022-10-18T05:54:51.841Z,94.5
2022-10-18T05:55:58.107Z,94.5
2022-10-18T05:57:04.424Z,94.5
2022-10-18T05:58:10.683Z,94
2022-10-18T05:59:16.926Z,94.5
2022-10-18T06:00:23.203Z,95
2022-10-18T06:01:29.492Z,95
2022-10-18T06:02:34.772Z,94.5
2022-10-18T06:03:41.072Z,94.5
2022-10-18T06:04:46.324Z,94
2022-10-18T06:05:51.632Z,94
2022-10-18T06:06:56.916Z,94
2022-10-18T06:08:03.192Z,93.5
2022-10-18T06:09:09.470Z,93.5
2022-10-18T06:10:15.731Z,93.5
2022-10-18T06:11:22.009Z,93
2022-10-18T06:12:28.282Z,93
2022-10-18T06:13:34.550Z,93.5
2022-10-18T06:14:40.848Z,93.5
2022-10-18T06:15:47.096Z,93.5
2022-10-18T06:16:53.377Z,93.5
2022-10-18T06:17:59.642Z,93.5
2022-10-18T06:19:05.911Z,93.5
2022-10-18T06:20:12.177Z,93.5
2022-10-18T06:21:17.467Z,93.5
2022-10-18T06:22:23.748Z,93.5
2022-10-18T06:23:30.015Z,93.5
2022-10-18T06:24:36.283Z,93.5
2022-10-18T06:25:42.558Z,93
2022-10-18T06:26:48.861Z,93
2022-10-18T06:27:55.116Z,92.5
2022-10-18T06:29:00.397Z,92.5
2022-10-18T06:30:05.692Z,92.5
2022-10-18T06:31:10.999Z,92
2022-10-18T06:32:16.280Z,92
2022-10-18T06:33:22.551Z,91.5
2022-10-18T06:34:28.819Z,91.5
2022-10-18T06:35:35.103Z,91.5
2022-10-18T06:36:41.370Z,91
2022-10-18T06:37:47.638Z,91
2022-10-18T06:38:53.918Z,91.5
2022-10-18T06:40:00.179Z,91.5
2022-10-18T06:41:06.455Z,91
2022-10-18T06:42:12.727Z,91
2022-10-18T06:43:18.997Z,91
2022-10-18T06:44:25.270Z,91
2022-10-18T06:45:31.538Z,91
2022-10-18T06:46:36.827Z,91.5
2022-10-18T06:47:43.097Z,91.5
2022-10-18T06:48:49.370Z,91.5
2022-10-18T06:49:55.648Z,91.5
2022-10-18T06:51:01.916Z,91.5
2022-10-18T06:52:08.187Z,91.5
2022-10-18T06:53:14.462Z,92
2022-10-18T06:54:19.762Z,92
2022-10-18T06:55:25.048Z,91.5
2022-10-18T06:56:30.346Z,92
2022-10-18T06:57:35.639Z,92
2022-10-18T06:58:41.922Z,92
2022-10-18T06:59:48.181Z,92
2022-10-18T07:00:54.471Z,92
2022-10-18T07:01:59.742Z,92
2022-10-18T07:03:06.106Z,92
2022-10-18T07:04:12.357Z,92
2022-10-18T07:05:18.695Z,92
2022-10-18T07:06:24.846Z,92.5
2022-10-18T07:07:31.109Z,92.5
2022-10-18T07:08:37.382Z,92
2022-10-18T07:09:43.650Z,92
2022-10-18T07:10:49.926Z,92
2022-10-18T07:11:56.196Z,92.5
2022-10-18T07:13:02.462Z,92
2022-10-18T07:14:08.763Z,92
2022-10-18T07:15:15.018Z,92
2022-10-18T07:16:20.300Z,92
2022-10-18T07:17:26.567Z,91.5
2022-10-18T07:18:32.847Z,91.5
2022-10-18T07:19:38.147Z,91.5
2022-10-18T07:20:43.438Z,91.5
2022-10-18T07:21:49.732Z,91
2022-10-18T07:22:55.990Z,91.5
2022-10-18T07:24:02.267Z,91
2022-10-18T07:25:07.553Z,91
2022-10-18T07:26:12.841Z,91
2022-10-18T07:27:19.108Z,91
2022-10-18T07:28:25.381Z,91
2022-10-18T07:29:31.656Z,91
2022-10-18T07:30:37.931Z,90.5
2022-10-18T07:31:44.199Z,91
2022-10-18T07:32:50.472Z,90.5
2022-10-18T07:33:56.743Z,90
2022-10-18T07:35:03.015Z,90
2022-10-18T07:36:09.284Z,90
2022-10-18T07:37:15.561Z,89.5
2022-10-18T07:38:21.825Z,89.5
2022-10-18T07:39:28.102Z,89.5
2022-10-18T07:40:33.391Z,89.5
2022-10-18T07:41:39.676Z,90
2022-10-18T07:42:45.957Z,89.5
2022-10-18T07:43:52.202Z,89.5
2022-10-18T07:44:58.505Z,89.5
2022-10-18T07:46:04.781Z,89.5
2022-10-18T07:47:11.082Z,89
2022-10-18T07:48:16.319Z,88.5
2022-10-18T07:49:21.726Z,88.5
2022-10-18T07:50:27.107Z,88.5
2022-10-18T07:51:32.217Z,88.5
2022-10-18T07:52:38.460Z,88.5
2022-10-18T07:53:44.750Z,88.5
2022-10-18T07:54:51.032Z,88.5
2022-10-18T07:55:57.301Z,88
2022-10-18T07:57:03.556Z,88.5
2022-10-18T07:58:09.825Z,88
2022-10-18T07:59:16.098Z,88
2022-10-18T08:00:22.368Z,87.5
2022-10-18T08:01:28.643Z,87.5
2022-10-18T08:02:34.913Z,87
2022-10-18T08:03:41.184Z,87.5
2022-10-18T08:04:47.474Z,87
2022-10-18T08:05:52.745Z,87
2022-10-18T08:06:59.016Z,86.5
2022-10-18T08:08:05.392Z,86
2022-10-18T08:09:11.568Z,86.5
2022-10-18T08:10:17.844Z,86
2022-10-18T08:11:24.109Z,86
2022-10-18T08:12:30.372Z,86
2022-10-18T08:13:35.717Z,86.5
2022-10-18T08:14:40.968Z,86.5
2022-10-18T08:15:46.265Z,86
2022-10-18T08:16:51.552Z,86
2022-10-18T08:17:57.826Z,86
2022-10-18T08:19:04.098Z,86
2022-10-18T08:20:10.372Z,86
2022-10-18T08:21:16.643Z,86.5
2022-10-18T08:22:22.918Z,86
2022-10-18T08:23:29.185Z,86
2022-10-18T08:24:35.464Z,85.5
2022-10-18T08:25:41.763Z,86
2022-10-18T08:26:48.009Z,86
2022-10-18T08:27:54.275Z,86
2022-10-18T08:29:00.542Z,85.5
2022-10-18T08:30:06.817Z,85.5
2022-10-18T08:31:12.119Z,85
2022-10-18T08:32:18.388Z,85
2022-10-18T08:33:24.647Z,86
2022-10-18T08:34:31.070Z,85.5
2022-10-18T08:35:37.331Z,85
2022-10-18T08:36:43.488Z,85
2022-10-18T08:37:49.876Z,85.5
2022-10-18T08:38:55.147Z,84.5
2022-10-18T08:40:00.322Z,84.5
2022-10-18T08:41:05.778Z,85
2022-10-18T08:42:11.048Z,84.5
2022-10-18T08:43:17.325Z,85
2022-10-18T08:44:23.608Z,85.5
2022-10-18T08:45:29.909Z,84.5
2022-10-18T08:46:35.994Z,85
2022-10-18T08:47:42.416Z,85
2022-10-18T08:48:48.662Z,85
2022-10-18T08:49:54.918Z,84.5
2022-10-18T08:51:01.196Z,85
2022-10-18T08:52:07.514Z,83.5
2022-10-18T08:53:13.787Z,84.5
2022-10-18T08:54:20.012Z,83
2022-10-18T08:55:26.305Z,84
2022-10-18T08:56:31.601Z,84
2022-10-18T08:57:37.809Z,84
2022-10-18T08:58:44.157Z,83
2022-10-18T08:59:50.425Z,82.5
2022-10-18T09:00:56.548Z,83.5
2022-10-18T09:02:02.977Z,84
2022-10-18T09:03:09.092Z,81.5
2022-10-18T09:04:14.525Z,82.5
2022-10-18T09:05:19.682Z,82
2022-10-18T09:06:24.978Z,83
2022-10-18T09:07:30.399Z,83
2022-10-18T09:08:36.704Z,82.5
2022-10-18T09:09:42.955Z,82.5
2022-10-18T09:10:49.089Z,82
2022-10-18T09:11:55.453Z,82
2022-10-18T09:13:01.636Z,82.5
2022-10-18T09:14:08.003Z,82
2022-10-18T09:15:14.305Z,82
2022-10-18T09:16:20.474Z,81.5
2022-10-18T09:17:26.721Z,82.5
2022-10-18T09:18:33.018Z,83.5
2022-10-18T09:19:39.325Z,80.5
2022-10-18T09:20:45.535Z,80.5
2022-10-18T09:21:50.825Z,81
2022-10-18T09:22:57.137Z,81.5
2022-10-18T09:24:03.435Z,81
2022-10-18T09:25:09.662Z,82
2022-10-18T09:26:16.021Z,82.5
2022-10-18T09:27:22.180Z,83
2022-10-18T09:28:28.589Z,80
2022-10-18T09:29:33.824Z,80
2022-10-18T09:30:39.153Z,79
2022-10-18T09:31:45.305Z,79
2022-10-18T09:32:51.597Z,79.5
2022-10-18T09:33:57.858Z,77
2022-10-18T09:35:03.157Z,76.5
2022-10-18T09:36:08.444Z,76
2022-10-18T09:37:14.764Z,76.5
2022-10-18T09:38:21.027Z,76.5
2022-10-18T09:39:27.352Z,77
2022-10-18T09:40:33.528Z,76.5
2022-10-18T09:41:39.826Z,77
2022-10-18T09:42:46.105Z,76
2022-10-18T09:43:52.377Z,76
2022-10-18T09:44:58.646Z,76
2022-10-18T09:46:04.885Z,77.5
2022-10-18T09:47:11.273Z,77.5
2022-10-18T09:48:17.443Z,78
2022-10-18T09:49:23.708Z,76.5
2022-10-18T09:50:28.997Z,78
2022-10-18T09:51:35.329Z,78.5
2022-10-18T09:52:41.600Z,76
2022-10-18T09:53:47.811Z,79
2022-10-18T09:54:54.115Z,77
2022-10-18T09:56:00.352Z,75.5
2022-10-18T09:57:06.627Z,75.5
2022-10-18T09:58:12.911Z,76
2022-10-18T09:59:19.181Z,75.5
2022-10-18T10:00:25.446Z,74.5
2022-10-18T10:01:31.726Z,75.5
2022-10-18T10:02:38.007Z,75.5
2022-10-18T10:03:44.265Z,74
2022-10-18T10:04:49.588Z,75.5
2022-10-18T10:05:55.812Z,75.5
2022-10-18T10:07:02.090Z,76
2022-10-18T10:08:08.447Z,76.5
2022-10-18T10:09:14.659Z,75
2022-10-18T10:10:20.908Z,75.5
2022-10-18T10:11:27.184Z,73
2022-10-18T10:12:33.530Z,72
2022-10-18T10:13:39.749Z,72
2022-10-18T10:14:45.030Z,70
2022-10-18T10:15:50.324Z,71
2022-10-18T10:16:55.608Z,72
2022-10-18T10:18:00.952Z,70
2022-10-18T10:19:07.242Z,70.5
2022-10-18T10:20:13.452Z,70
2022-10-18T10:21:19.778Z,69
2022-10-18T10:22:25.983Z,70
2022-10-18T10:23:32.256Z,69.5
2022-10-18T10:24:38.561Z,67.5
2022-10-18T10:25:44.834Z,70.5
2022-10-18T10:26:51.075Z,67
2022-10-18T10:27:57.363Z,69.5
2022-10-18T10:29:03.627Z,70.5
2022-10-18T10:30:09.976Z,67
2022-10-18T10:31:16.172Z,67
2022-10-18T10:32:21.466Z,68.5
2022-10-18T10:33:27.729Z,67.5
2022-10-18T10:34:33.996Z,70
2022-10-18T10:35:40.263Z,67
2022-10-18T10:36:46.548Z,71
2022-10-18T10:37:52.816Z,67.5
2022-10-18T10:38:59.144Z,68.5
2022-10-18T10:40:04.403Z,68.5
2022-10-18T10:41:09.691Z,66.5
2022-10-18T10:42:15.966Z,68
2022-10-18T10:43:21.291Z,67
2022-10-18T10:44:26.575Z,66.5
2022-10-18T10:45:32.811Z,69
2022-10-18T10:46:39.139Z,66.5
2022-10-18T10:47:45.425Z,69
2022-10-18T10:48:51.627Z,67
2022-10-18T10:49:57.894Z,67
2022-10-18T10:51:04.170Z,67.5
2022-10-18T10:52:10.437Z,66.5
2022-10-18T10:53:16.714Z,69.5
2022-10-18T10:54:23.001Z,65.5
2022-10-18T10:55:29.265Z,67
2022-10-18T10:56:35.531Z,68
2022-10-18T10:57:41.831Z,67
2022-10-18T10:58:47.112Z,64.5
2022-10-18T10:59:53.372Z,66.5
2022-10-18T11:00:59.636Z,66
2022-10-18T11:02:05.908Z,64
2022-10-18T11:03:12.209Z,64.5
2022-10-18T11:04:18.459Z,66.5
2022-10-18T11:05:24.724Z,66
2022-10-18T11:06:31.029Z,63.5
2022-10-18T11:07:36.317Z,66
2022-10-18T11:08:41.736Z,63
2022-10-18T11:09:46.977Z,66
2022-10-18T11:10:53.150Z,63.5
2022-10-18T11:11:58.456Z,66
2022-10-18T11:13:04.719Z,64.5
2022-10-18T11:14:10.989Z,64.5
2022-10-18T11:15:17.252Z,64.5
2022-10-18T11:16:23.525Z,63.5
2022-10-18T11:17:29.827Z,64
2022-10-18T11:18:36.082Z,64.5
2022-10-18T11:19:42.352Z,64.5
2022-10-18T11:20:48.623Z,64.5
2022-10-18T11:21:54.897Z,64
2022-10-18T11:23:01.167Z,63.5
2022-10-18T11:24:07.437Z,65.5
2022-10-18T11:25:13.750Z,64
2022-10-18T11:26:19.003Z,66
2022-10-18T11:27:25.266Z,62
2022-10-18T11:28:31.558Z,62.5
2022-10-18T11:29:37.862Z,64
2022-10-18T11:30:44.085Z,64.5
2022-10-18T11:31:50.357Z,65
2022-10-18T11:32:55.658Z,66
2022-10-18T11:34:01.041Z,66
2022-10-18T11:35:06.241Z,65.5
2022-10-18T11:36:11.650Z,65.5
2022-10-18T11:37:17.805Z,67
2022-10-18T11:38:24.096Z,66
2022-10-18T11:39:30.381Z,66.5
2022-10-18T11:40:36.624Z,68
2022-10-18T11:41:42.940Z,66
2022-10-18T11:42:49.223Z,67.5
2022-10-18T11:43:55.462Z,66.5
2022-10-18T11:45:01.735Z,67.5
2022-10-18T11:46:08.001Z,68
2022-10-18T11:47:14.256Z,68
2022-10-18T11:48:20.527Z,68
2022-10-18T11:49:26.803Z,66.5
2022-10-18T11:50:32.093Z,66.5
2022-10-18T11:51:38.363Z,69
2022-10-18T11:52:44.631Z,67
2022-10-18T11:53:50.904Z,66.5
2022-10-18T11:54:57.199Z,67.5
2022-10-18T11:56:03.441Z,67
2022-10-18T11:57:09.721Z,67.5
2022-10-18T11:58:15.053Z,65
2022-10-18T11:59:20.307Z,65
2022-10-18T12:00:26.594Z,64.5
2022-10-18T12:01:32.854Z,67
2022-10-18T12:02:39.159Z,67
2022-10-18T12:03:44.417Z,66
2022-10-18T12:04:50.693Z,67
2022-10-18T12:05:56.006Z,66.5
2022-10-18T12:07:02.248Z,64.5
2022-10-18T12:08:08.522Z,66
2022-10-18T12:09:14.833Z,65.5
2022-10-18T12:10:21.088Z,64
2022-10-18T12:11:27.333Z,66
2022-10-18T12:12:33.615Z,67
2022-10-18T12:13:39.882Z,65.5
2022-10-18T12:14:46.160Z,64
2022-10-18T12:15:52.433Z,63.5
2022-10-18T12:16:58.703Z,67
2022-10-18T12:18:04.982Z,62
2022-10-18T12:19:11.251Z,64.5
2022-10-18T12:20:16.557Z,65
2022-10-18T12:21:22.804Z,66
2022-10-18T12:22:29.089Z,65.5
2022-10-18T12:23:35.357Z,64.5
2022-10-18T12:24:41.622Z,62
2022-10-18T12:25:47.889Z,63.5
2022-10-18T12:26:53.193Z,61.5
2022-10-18T12:27:58.506Z,64
2022-10-18T12:29:04.758Z,61.5
2022-10-18T12:30:11.027Z,63.5
2022-10-18T12:31:17.297Z,64.5
2022-10-18T12:32:23.616Z,65
2022-10-18T12:33:29.851Z,64
2022-10-18T12:34:36.129Z,64
2022-10-18T12:35:42.408Z,66
2022-10-18T12:36:48.755Z,62.5
2022-10-18T12:37:54.964Z,65
2022-10-18T12:39:01.201Z,63
2022-10-18T12:40:07.475Z,67.5
2022-10-18T12:41:13.749Z,66
2022-10-18T12:42:19.038Z,68.5
2022-10-18T12:43:25.319Z,65.5
2022-10-18T12:44:31.585Z,65
2022-10-18T12:45:37.866Z,65.5
2022-10-18T12:46:44.121Z,63.5
2022-10-18T12:47:50.388Z,66.5
2022-10-18T12:48:56.677Z,65
2022-10-18T12:50:01.966Z,63
2022-10-18T12:51:07.313Z,66.5
2022-10-18T12:52:13.542Z,63
2022-10-18T12:53:18.824Z,62.5
2022-10-18T12:54:24.242Z,63.5
2022-10-18T12:55:30.413Z,65
2022-10-18T12:56:36.673Z,63
2022-10-18T12:57:41.958Z,66
2022-10-18T12:58:47.260Z,62
2022-10-18T12:59:53.537Z,64
2022-10-18T13:00:59.911Z,65
2022-10-18T13:02:06.101Z,63
2022-10-18T13:03:12.332Z,63.5
2022-10-18T13:04:18.613Z,64.5
2022-10-18T13:05:24.881Z,64
2022-10-18T13:06:31.153Z,62.5
2022-10-18T13:07:37.440Z,63.5
2022-10-18T13:08:43.713Z,61.5
2022-10-18T13:09:49.989Z,64.5
2022-10-18T13:10:56.268Z,66.5
2022-10-18T13:12:02.539Z,65
2022-10-18T13:13:07.802Z,65
2022-10-18T13:14:14.076Z,64
2022-10-18T13:15:20.341Z,62
2022-10-18T13:16:26.653Z,63.5
2022-10-18T13:17:32.894Z,65
2022-10-18T13:18:39.166Z,67.5
2022-10-18T13:19:45.429Z,62
2022-10-18T13:20:50.737Z,64.5
2022-10-18T13:21:56.024Z,62.5
2022-10-18T13:23:02.292Z,63
2022-10-18T13:24:07.627Z,63
2022-10-18T13:25:12.908Z,65.5
2022-10-18T13:26:19.184Z,62
2022-10-18T13:27:25.433Z,63
2022-10-18T13:28:31.711Z,62.5
2022-10-18T13:29:37.963Z,63.5
2022-10-18T13:30:44.282Z,62
2022-10-18T13:31:50.551Z,61.5
2022-10-18T13:32:56.863Z,62.5
2022-10-18T13:34:03.083Z,62
2022-10-18T13:35:09.328Z,60.5
2022-10-18T13:36:15.629Z,63
2022-10-18T13:37:21.914Z,62
2022-10-18T13:38:28.153Z,62
2022-10-18T13:39:33.470Z,63
2022-10-18T13:40:39.722Z,62.5
2022-10-18T13:41:45.986Z,63
2022-10-18T13:42:52.263Z,63.5
2022-10-18T13:43:58.524Z,63
2022-10-18T13:45:04.800Z,63.5
2022-10-18T13:46:11.095Z,63.5
2022-10-18T13:47:16.401Z,63
2022-10-18T13:48:21.659Z,64
2022-10-18T13:49:26.983Z,64
2022-10-18T13:50:32.245Z,64
2022-10-18T13:51:38.519Z,62.5
2022-10-18T13:52:44.836Z,62.5
2022-10-18T13:53:51.055Z,62.5
2022-10-18T13:54:57.334Z,63
2022-10-18T13:56:03.610Z,63.5
2022-10-18T13:57:09.909Z,64.5
2022-10-18T13:58:16.149Z,63.5
2022-10-18T13:59:22.472Z,67
2022-10-18T14:00:28.696Z,63.5
2022-10-18T14:01:34.964Z,63
2022-10-18T14:02:41.240Z,62.5
2022-10-18T14:03:47.555Z,61.5
2022-10-18T14:04:52.789Z,62
2022-10-18T14:05:59.077Z,62.5
2022-10-18T14:07:05.406Z,62.5
2022-10-18T14:08:11.627Z,63
2022-10-18T14:09:17.884Z,63
2022-10-18T14:10:24.157Z,62.5
2022-10-18T14:11:30.428Z,60.5
2022-10-18T14:12:35.746Z,63
2022-10-18T14:13:41.011Z,62
2022-10-18T14:14:47.300Z,61
2022-10-18T14:15:53.586Z,60.5
2022-10-18T14:16:58.855Z,60.5
2022-10-18T14:18:04.157Z,60.5
2022-10-18T14:19:10.486Z,61
2022-10-18T14:20:16.689Z,61.5
2022-10-18T14:21:23.028Z,60
2022-10-18T14:22:29.237Z,61.5
2022-10-18T14:23:35.519Z,61
2022-10-18T14:24:40.802Z,62.5
2022-10-18T14:25:47.075Z,61.5
2022-10-18T14:26:53.441Z,62.5
2022-10-18T14:27:59.625Z,63
2022-10-18T14:29:05.886Z,63.5
2022-10-18T14:30:12.168Z,63.5
2022-10-18T14:31:18.435Z,63
2022-10-18T14:32:24.717Z,62
2022-10-18T14:33:30.984Z,62.5
2022-10-18T14:34:37.271Z,63.5
2022-10-18T14:35:43.518Z,62.5
2022-10-18T14:36:49.803Z,63
2022-10-18T14:37:56.071Z,63
2022-10-18T14:39:01.354Z,63.5
2022-10-18T14:40:06.655Z,64
2022-10-18T14:41:11.963Z,66.5
2022-10-18T14:42:17.257Z,65.5
2022-10-18T14:43:23.511Z,66.5
2022-10-18T14:44:28.801Z,62.5
2022-10-18T14:45:35.070Z,66
2022-10-18T14:46:41.359Z,65
2022-10-18T14:47:47.673Z,68.5
2022-10-18T14:48:53.888Z,65
2022-10-18T14:50:00.170Z,66.5
2022-10-18T14:51:06.432Z,66.5
2022-10-18T14:52:12.705Z,66.5
2022-10-18T14:53:18.981Z,67.5
2022-10-18T14:54:25.246Z,67.5
2022-10-18T14:55:31.528Z,68
2022-10-18T14:56:37.794Z,68.5
2022-10-18T14:57:44.076Z,67.5
2022-10-18T14:58:49.357Z,67.5
2022-10-18T14:59:55.649Z,68
2022-10-18T15:01:01.954Z,68
2022-10-18T15:02:08.194Z,68.5
2022-10-18T15:03:14.441Z,69.5
2022-10-18T15:04:20.726Z,69
2022-10-18T15:05:26.012Z,72
2022-10-18T15:06:31.322Z,71
2022-10-18T15:07:36.603Z,69.5
2022-10-18T15:08:41.888Z,71.5
2022-10-18T15:09:48.159Z,70
2022-10-18T15:10:54.444Z,69.5
2022-10-18T15:12:00.711Z,70.5